sensor_id;sensor_type;location;lat;lon;timestamp;temperature;humidity
39099;DHT22;24844;52.380;7.018;2022-07-29T00:02:02;18.10;97.70
39099;DHT22;24844;52.380;7.018;2022-07-29T00:04:27;18.00;97.80
39099;DHT22;24844;52.380;7.018;2022-07-29T00:06:53;18.00;97.70
39099;DHT22;24844;52.380;7.018;2022-07-29T00:09:18;17.80;98.10
39099;DHT22;24844;52.380;7.018;2022-07-29T00:11:44;17.90;97.80
39099;DHT22;24844;52.380;7.018;2022-07-29T00:14:09;17.90;97.70
39099;DHT22;24844;52.380;7.018;2022-07-29T00:16:35;17.80;97.90
39099;DHT22;24844;52.380;7.018;2022-07-29T00:19:01;17.80;97.90
39099;DHT22;24844;52.380;7.018;2022-07-29T00:21:26;17.70;98.10
39099;DHT22;24844;52.380;7.018;2022-07-29T00:23:52;17.70;98.00
39099;DHT22;24844;52.380;7.018;2022-07-29T00:26:17;17.70;98.00
39099;DHT22;24844;52.380;7.018;2022-07-29T00:28:43;17.80;97.90
39099;DHT22;24844;52.380;7.018;2022-07-29T00:31:09;17.70;97.90
39099;DHT22;24844;52.380;7.018;2022-07-29T00:33:34;18.00;97.60
39099;DHT22;24844;52.380;7.018;2022-07-29T00:36:00;17.80;97.80
39099;DHT22;24844;52.380;7.018;2022-07-29T00:38:25;17.70;98.00
39099;DHT22;24844;52.380;7.018;2022-07-29T00:40:51;17.80;97.90
39099;DHT22;24844;52.380;7.018;2022-07-29T00:43:16;17.70;97.90
39099;DHT22;24844;52.380;7.018;2022-07-29T00:45:43;17.60;98.20
39099;DHT22;24844;52.380;7.018;2022-07-29T00:48:09;17.60;98.20
39099;DHT22;24844;52.380;7.018;2022-07-29T00:50:35;17.70;98.10
39099;DHT22;24844;52.380;7.018;2022-07-29T00:53:03;17.70;98.10
39099;DHT22;24844;52.380;7.018;2022-07-29T00:55:29;17.60;98.30
39099;DHT22;24844;52.380;7.018;2022-07-29T00:57:55;17.50;98.50
39099;DHT22;24844;52.380;7.018;2022-07-29T01:00:24;17.40;98.80
39099;DHT22;24844;52.380;7.018;2022-07-29T01:02:50;17.40;98.70
39099;DHT22;24844;52.380;7.018;2022-07-29T01:05:20;17.70;98.50
39099;DHT22;24844;52.380;7.018;2022-07-29T01:07:47;17.60;98.50
39099;DHT22;24844;52.380;7.018;2022-07-29T01:10:14;17.60;98.40
39099;DHT22;24844;52.380;7.018;2022-07-29T01:12:43;17.60;98.50
39099;DHT22;24844;52.380;7.018;2022-07-29T01:15:09;17.30;99.10
39099;DHT22;24844;52.380;7.018;2022-07-29T01:17:46;17.20;99.40
39099;DHT22;24844;52.380;7.018;2022-07-29T01:20:31;17.20;99.50
39099;DHT22;24844;52.380;7.018;2022-07-29T01:26:27;17.30;99.10
39099;DHT22;24844;52.380;7.018;2022-07-29T01:28:59;17.60;98.70
39099;DHT22;24844;52.380;7.018;2022-07-29T01:32:01;17.50;98.90
39099;DHT22;24844;52.380;7.018;2022-07-29T01:34:35;17.30;99.10
39099;DHT22;24844;52.380;7.018;2022-07-29T01:37:08;17.30;99.30
39099;DHT22;24844;52.380;7.018;2022-07-29T01:39:38;17.40;99.20
39099;DHT22;24844;52.380;7.018;2022-07-29T01:45:06;17.30;99.30
39099;DHT22;24844;52.380;7.018;2022-07-29T01:47:41;17.20;99.40
39099;DHT22;24844;52.380;7.018;2022-07-29T01:50:11;17.30;99.30
39099;DHT22;24844;52.380;7.018;2022-07-29T01:52:39;17.20;99.50
39099;DHT22;24844;52.380;7.018;2022-07-29T01:55:11;17.20;99.40
39099;DHT22;24844;52.380;7.018;2022-07-29T01:57:40;17.20;99.50
39099;DHT22;24844;52.380;7.018;2022-07-29T02:00:07;17.10;99.80
39099;DHT22;24844;52.380;7.018;2022-07-29T02:02:35;17.10;99.70
39099;DHT22;24844;52.380;7.018;2022-07-29T02:05:02;17.00;99.90
39099;DHT22;24844;52.380;7.018;2022-07-29T02:07:29;16.90;99.90
39099;DHT22;24844;52.380;7.018;2022-07-29T02:09:57;17.00;99.90
39099;DHT22;24844;52.380;7.018;2022-07-29T02:12:24;16.90;99.90
39099;DHT22;24844;52.380;7.018;2022-07-29T02:14:52;16.90;99.90
39099;DHT22;24844;52.380;7.018;2022-07-29T02:17:32;17.00;99.90
39099;DHT22;24844;52.380;7.018;2022-07-29T02:20:00;17.10;99.90
39099;DHT22;24844;52.380;7.018;2022-07-29T02:22:29;16.90;99.90
39099;DHT22;24844;52.380;7.018;2022-07-29T02:24:55;16.90;99.90
39099;DHT22;24844;52.380;7.018;2022-07-29T02:27:21;16.80;99.90
39099;DHT22;24844;52.380;7.018;2022-07-29T02:29:47;16.80;99.90
39099;DHT22;24844;52.380;7.018;2022-07-29T02:32:14;16.70;99.90
39099;DHT22;24844;52.380;7.018;2022-07-29T02:34:39;16.70;99.90
39099;DHT22;24844;52.380;7.018;2022-07-29T02:37:08;16.70;99.90
39099;DHT22;24844;52.380;7.018;2022-07-29T02:39:34;16.70;99.90
39099;DHT22;24844;52.380;7.018;2022-07-29T02:42:07;16.70;99.90
39099;DHT22;24844;52.380;7.018;2022-07-29T02:44:32;16.50;99.90
39099;DHT22;24844;52.380;7.018;2022-07-29T02:47:10;16.60;99.90
39099;DHT22;24844;52.380;7.018;2022-07-29T02:49:41;16.50;99.90
39099;DHT22;24844;52.380;7.018;2022-07-29T02:54:44;16.50;99.90
39099;DHT22;24844;52.380;7.018;2022-07-29T02:57:14;16.50;99.90
39099;DHT22;24844;52.380;7.018;2022-07-29T02:59:40;16.70;99.90
39099;DHT22;24844;52.380;7.018;2022-07-29T03:02:07;16.80;99.90
39099;DHT22;24844;52.380;7.018;2022-07-29T03:04:33;16.70;99.90
39099;DHT22;24844;52.380;7.018;2022-07-29T03:06:59;16.70;99.90
39099;DHT22;24844;52.380;7.018;2022-07-29T03:09:25;16.60;99.90
39099;DHT22;24844;52.380;7.018;2022-07-29T03:11:51;16.60;99.90
39099;DHT22;24844;52.380;7.018;2022-07-29T03:14:19;16.70;99.90
39099;DHT22;24844;52.380;7.018;2022-07-29T03:16:45;16.50;99.90
39099;DHT22;24844;52.380;7.018;2022-07-29T03:19:10;16.50;99.90
39099;DHT22;24844;52.380;7.018;2022-07-29T03:21:36;16.50;99.90
39099;DHT22;24844;52.380;7.018;2022-07-29T03:24:01;16.50;99.90
39099;DHT22;24844;52.380;7.018;2022-07-29T03:26:27;16.50;99.90
39099;DHT22;24844;52.380;7.018;2022-07-29T03:28:52;16.50;99.90
39099;DHT22;24844;52.380;7.018;2022-07-29T03:31:18;16.50;99.90
39099;DHT22;24844;52.380;7.018;2022-07-29T03:33:43;16.40;99.90
39099;DHT22;24844;52.380;7.018;2022-07-29T03:36:09;16.40;99.90
39099;DHT22;24844;52.380;7.018;2022-07-29T03:38:34;16.30;99.90
39099;DHT22;24844;52.380;7.018;2022-07-29T03:41:02;16.10;99.90
39099;DHT22;24844;52.380;7.018;2022-07-29T03:43:29;16.10;99.90
39099;DHT22;24844;52.380;7.018;2022-07-29T03:45:55;16.00;99.90
39099;DHT22;24844;52.380;7.018;2022-07-29T03:48:22;16.10;99.90
39099;DHT22;24844;52.380;7.018;2022-07-29T03:50:49;16.00;99.90
39099;DHT22;24844;52.380;7.018;2022-07-29T03:53:15;16.00;99.90
39099;DHT22;24844;52.380;7.018;2022-07-29T03:55:42;16.00;99.90
39099;DHT22;24844;52.380;7.018;2022-07-29T03:58:09;15.90;99.90
39099;DHT22;24844;52.380;7.018;2022-07-29T04:00:35;15.80;99.90
39099;DHT22;24844;52.380;7.018;2022-07-29T04:03:01;16.00;99.90
39099;DHT22;24844;52.380;7.018;2022-07-29T04:05:28;15.90;99.90
39099;DHT22;24844;52.380;7.018;2022-07-29T04:07:54;16.00;99.90
39099;DHT22;24844;52.380;7.018;2022-07-29T04:10:19;15.90;99.90
39099;DHT22;24844;52.380;7.018;2022-07-29T04:12:45;16.00;99.90
39099;DHT22;24844;52.380;7.018;2022-07-29T04:15:10;16.10;99.90
39099;DHT22;24844;52.380;7.018;2022-07-29T04:17:36;16.10;99.90
39099;DHT22;24844;52.380;7.018;2022-07-29T04:20:02;16.00;99.90
39099;DHT22;24844;52.380;7.018;2022-07-29T04:22:28;16.00;99.90
39099;DHT22;24844;52.380;7.018;2022-07-29T04:24:53;16.10;99.90
39099;DHT22;24844;52.380;7.018;2022-07-29T04:27:19;16.20;99.90
39099;DHT22;24844;52.380;7.018;2022-07-29T04:29:44;16.10;99.90
39099;DHT22;24844;52.380;7.018;2022-07-29T04:32:10;16.20;99.90
39099;DHT22;24844;52.380;7.018;2022-07-29T04:34:35;16.30;99.90
39099;DHT22;24844;52.380;7.018;2022-07-29T04:37:01;16.20;99.90
39099;DHT22;24844;52.380;7.018;2022-07-29T04:39:26;16.20;99.90
39099;DHT22;24844;52.380;7.018;2022-07-29T04:41:51;16.40;99.90
39099;DHT22;24844;52.380;7.018;2022-07-29T04:44:17;16.40;99.90
39099;DHT22;24844;52.380;7.018;2022-07-29T04:46:42;16.40;99.90
39099;DHT22;24844;52.380;7.018;2022-07-29T04:49:08;16.40;99.90
39099;DHT22;24844;52.380;7.018;2022-07-29T04:51:34;16.50;99.90
39099;DHT22;24844;52.380;7.018;2022-07-29T04:53:59;16.50;99.90
39099;DHT22;24844;52.380;7.018;2022-07-29T04:56:25;16.60;99.90
39099;DHT22;24844;52.380;7.018;2022-07-29T04:58:50;16.60;99.90
39099;DHT22;24844;52.380;7.018;2022-07-29T05:01:15;16.70;99.90
39099;DHT22;24844;52.380;7.018;2022-07-29T05:03:41;16.60;99.90
39099;DHT22;24844;52.380;7.018;2022-07-29T05:06:07;16.70;99.90
39099;DHT22;24844;52.380;7.018;2022-07-29T05:08:32;16.70;99.90
39099;DHT22;24844;52.380;7.018;2022-07-29T05:10:58;16.80;99.90
39099;DHT22;24844;52.380;7.018;2022-07-29T05:13:23;16.80;99.90
39099;DHT22;24844;52.380;7.018;2022-07-29T05:15:49;17.00;99.90
39099;DHT22;24844;52.380;7.018;2022-07-29T05:18:14;17.10;99.90
39099;DHT22;24844;52.380;7.018;2022-07-29T05:20:40;17.20;99.90
39099;DHT22;24844;52.380;7.018;2022-07-29T05:23:06;17.30;99.90
39099;DHT22;24844;52.380;7.018;2022-07-29T05:25:31;17.30;99.90
39099;DHT22;24844;52.380;7.018;2022-07-29T05:27:57;17.60;99.90
39099;DHT22;24844;52.380;7.018;2022-07-29T05:30:23;17.60;99.90
39099;DHT22;24844;52.380;7.018;2022-07-29T05:32:48;17.70;99.90
39099;DHT22;24844;52.380;7.018;2022-07-29T05:35:14;17.50;99.90
39099;DHT22;24844;52.380;7.018;2022-07-29T05:37:40;17.60;99.90
39099;DHT22;24844;52.380;7.018;2022-07-29T05:40:05;17.60;99.90
39099;DHT22;24844;52.380;7.018;2022-07-29T05:42:31;17.50;99.90
39099;DHT22;24844;52.380;7.018;2022-07-29T05:44:56;17.40;99.90
39099;DHT22;24844;52.380;7.018;2022-07-29T05:47:22;17.60;99.90
39099;DHT22;24844;52.380;7.018;2022-07-29T05:49:48;17.60;99.90
39099;DHT22;24844;52.380;7.018;2022-07-29T05:52:14;17.50;99.90
39099;DHT22;24844;52.380;7.018;2022-07-29T05:54:39;17.70;99.90
39099;DHT22;24844;52.380;7.018;2022-07-29T05:57:05;17.70;99.90
39099;DHT22;24844;52.380;7.018;2022-07-29T05:59:31;17.80;99.90
39099;DHT22;24844;52.380;7.018;2022-07-29T06:01:57;17.90;99.90
39099;DHT22;24844;52.380;7.018;2022-07-29T06:04:22;17.80;99.90
39099;DHT22;24844;52.380;7.018;2022-07-29T06:06:48;17.90;99.90
39099;DHT22;24844;52.380;7.018;2022-07-29T06:09:13;18.10;99.90
39099;DHT22;24844;52.380;7.018;2022-07-29T06:11:39;18.30;99.90
39099;DHT22;24844;52.380;7.018;2022-07-29T06:14:04;18.30;99.90
39099;DHT22;24844;52.380;7.018;2022-07-29T06:16:30;18.60;99.90
39099;DHT22;24844;52.380;7.018;2022-07-29T06:18:55;18.80;98.60
39099;DHT22;24844;52.380;7.018;2022-07-29T06:21:21;18.90;98.30
39099;DHT22;24844;52.380;7.018;2022-07-29T06:23:46;19.20;98.60
39099;DHT22;24844;52.380;7.018;2022-07-29T06:26:12;19.30;98.30
39099;DHT22;24844;52.380;7.018;2022-07-29T06:28:37;19.60;98.80
39099;DHT22;24844;52.380;7.018;2022-07-29T06:31:03;19.80;98.10
39099;DHT22;24844;52.380;7.018;2022-07-29T06:33:28;20.00;97.70
39099;DHT22;24844;52.380;7.018;2022-07-29T06:35:54;20.10;97.50
39099;DHT22;24844;52.380;7.018;2022-07-29T06:38:19;20.20;97.10
39099;DHT22;24844;52.380;7.018;2022-07-29T06:40:45;20.10;96.50
39099;DHT22;24844;52.380;7.018;2022-07-29T06:45:57;19.80;97.10
39099;DHT22;24844;52.380;7.018;2022-07-29T06:48:23;19.70;97.20
39099;DHT22;24844;52.380;7.018;2022-07-29T06:50:48;19.70;97.50
39099;DHT22;24844;52.380;7.018;2022-07-29T06:53:13;19.60;97.50
39099;DHT22;24844;52.380;7.018;2022-07-29T06:55:39;19.90;97.40
39099;DHT22;24844;52.380;7.018;2022-07-29T06:58:04;19.70;96.70
39099;DHT22;24844;52.380;7.018;2022-07-29T07:00:30;20.10;97.20
39099;DHT22;24844;52.380;7.018;2022-07-29T07:02:55;20.20;96.40
39099;DHT22;24844;52.380;7.018;2022-07-29T07:05:21;20.40;96.50
39099;DHT22;24844;52.380;7.018;2022-07-29T07:07:46;20.40;96.50
39099;DHT22;24844;52.380;7.018;2022-07-29T07:10:12;20.80;95.10
39099;DHT22;24844;52.380;7.018;2022-07-29T07:12:37;20.80;95.50
39099;DHT22;24844;52.380;7.018;2022-07-29T07:15:03;21.00;95.30
39099;DHT22;24844;52.380;7.018;2022-07-29T07:17:28;20.80;95.30
39099;DHT22;24844;52.380;7.018;2022-07-29T07:19:54;20.80;95.10
39099;DHT22;24844;52.380;7.018;2022-07-29T07:22:19;21.00;94.60
39099;DHT22;24844;52.380;7.018;2022-07-29T07:24:44;21.00;94.50
39099;DHT22;24844;52.380;7.018;2022-07-29T07:27:10;20.70;95.10
39099;DHT22;24844;52.380;7.018;2022-07-29T07:29:36;20.60;95.40
39099;DHT22;24844;52.380;7.018;2022-07-29T07:32:01;20.70;95.40
39099;DHT22;24844;52.380;7.018;2022-07-29T07:34:27;20.90;95.40
39099;DHT22;24844;52.380;7.018;2022-07-29T07:36:52;20.90;95.40
39099;DHT22;24844;52.380;7.018;2022-07-29T07:39:18;20.80;95.60
39099;DHT22;24844;52.380;7.018;2022-07-29T07:41:43;20.80;95.90
39099;DHT22;24844;52.380;7.018;2022-07-29T07:44:08;20.50;96.00
39099;DHT22;24844;52.380;7.018;2022-07-29T07:46:34;20.50;96.10
39099;DHT22;24844;52.380;7.018;2022-07-29T07:48:59;20.60;96.10
39099;DHT22;24844;52.380;7.018;2022-07-29T07:51:25;20.80;95.50
39099;DHT22;24844;52.380;7.018;2022-07-29T07:53:50;21.00;95.50
39099;DHT22;24844;52.380;7.018;2022-07-29T07:56:16;21.20;95.30
39099;DHT22;24844;52.380;7.018;2022-07-29T07:58:41;20.90;94.80
39099;DHT22;24844;52.380;7.018;2022-07-29T08:01:07;20.60;95.50
39099;DHT22;24844;52.380;7.018;2022-07-29T08:03:33;20.50;95.50
39099;DHT22;24844;52.380;7.018;2022-07-29T08:05:58;20.60;95.50
39099;DHT22;24844;52.380;7.018;2022-07-29T08:08:24;20.60;95.50
39099;DHT22;24844;52.380;7.018;2022-07-29T08:10:49;20.70;95.40
39099;DHT22;24844;52.380;7.018;2022-07-29T08:13:18;20.50;95.90
39099;DHT22;24844;52.380;7.018;2022-07-29T08:15:44;20.40;96.10
39099;DHT22;24844;52.380;7.018;2022-07-29T08:18:11;20.20;96.50
39099;DHT22;24844;52.380;7.018;2022-07-29T08:20:36;20.50;96.30
39099;DHT22;24844;52.380;7.018;2022-07-29T08:23:03;20.50;96.20
39099;DHT22;24844;52.380;7.018;2022-07-29T08:25:29;20.40;96.50
39099;DHT22;24844;52.380;7.018;2022-07-29T08:27:55;20.20;96.70
39099;DHT22;24844;52.380;7.018;2022-07-29T08:30:20;20.20;96.70
39099;DHT22;24844;52.380;7.018;2022-07-29T08:32:47;20.20;96.70
39099;DHT22;24844;52.380;7.018;2022-07-29T08:35:12;20.10;97.00
39099;DHT22;24844;52.380;7.018;2022-07-29T08:37:38;20.10;97.50
39099;DHT22;24844;52.380;7.018;2022-07-29T08:40:03;20.10;97.70
39099;DHT22;24844;52.380;7.018;2022-07-29T08:42:29;20.00;97.80
39099;DHT22;24844;52.380;7.018;2022-07-29T08:44:55;20.10;98.10
39099;DHT22;24844;52.380;7.018;2022-07-29T08:47:21;20.10;97.90
39099;DHT22;24844;52.380;7.018;2022-07-29T08:49:47;19.90;98.70
39099;DHT22;24844;52.380;7.018;2022-07-29T08:52:13;19.90;98.40
39099;DHT22;24844;52.380;7.018;2022-07-29T08:54:39;19.80;99.20
39099;DHT22;24844;52.380;7.018;2022-07-29T08:57:08;19.70;99.00
39099;DHT22;24844;52.380;7.018;2022-07-29T08:59:34;19.90;98.80
39099;DHT22;24844;52.380;7.018;2022-07-29T09:02:00;19.80;99.90
39099;DHT22;24844;52.380;7.018;2022-07-29T09:04:27;19.50;99.90
39099;DHT22;24844;52.380;7.018;2022-07-29T09:06:54;19.70;99.90
39099;DHT22;24844;52.380;7.018;2022-07-29T09:09:22;19.90;99.80
39099;DHT22;24844;52.380;7.018;2022-07-29T09:11:47;19.90;99.90
39099;DHT22;24844;52.380;7.018;2022-07-29T09:14:14;19.70;99.90
39099;DHT22;24844;52.380;7.018;2022-07-29T09:16:43;19.60;99.90
39099;DHT22;24844;52.380;7.018;2022-07-29T09:21:53;19.80;99.90
39099;DHT22;24844;52.380;7.018;2022-07-29T09:26:54;19.90;99.90
39099;DHT22;24844;52.380;7.018;2022-07-29T09:29:20;19.90;99.90
39099;DHT22;24844;52.380;7.018;2022-07-29T09:31:47;20.10;99.90
39099;DHT22;24844;52.380;7.018;2022-07-29T09:34:14;20.10;99.70
39099;DHT22;24844;52.380;7.018;2022-07-29T09:36:44;20.20;99.70
39099;DHT22;24844;52.380;7.018;2022-07-29T09:39:09;20.20;99.70
39099;DHT22;24844;52.380;7.018;2022-07-29T09:41:48;20.20;99.50
39099;DHT22;24844;52.380;7.018;2022-07-29T09:44:14;20.20;99.60
39099;DHT22;24844;52.380;7.018;2022-07-29T09:46:40;20.10;99.90
39099;DHT22;24844;52.380;7.018;2022-07-29T09:49:10;20.10;99.80
39099;DHT22;24844;52.380;7.018;2022-07-29T09:51:36;20.20;99.60
39099;DHT22;24844;52.380;7.018;2022-07-29T09:54:02;20.20;99.80
39099;DHT22;24844;52.380;7.018;2022-07-29T09:56:46;20.40;99.60
39099;DHT22;24844;52.380;7.018;2022-07-29T09:59:11;20.50;99.90
39099;DHT22;24844;52.380;7.018;2022-07-29T10:01:37;20.40;99.90
39099;DHT22;24844;52.380;7.018;2022-07-29T10:04:02;20.20;99.90
39099;DHT22;24844;52.380;7.018;2022-07-29T10:06:28;20.10;99.90
39099;DHT22;24844;52.380;7.018;2022-07-29T10:08:53;20.00;99.90
39099;DHT22;24844;52.380;7.018;2022-07-29T10:11:19;20.10;99.90
39099;DHT22;24844;52.380;7.018;2022-07-29T10:13:45;20.00;99.90
39099;DHT22;24844;52.380;7.018;2022-07-29T10:16:11;20.00;99.90
39099;DHT22;24844;52.380;7.018;2022-07-29T10:18:38;20.00;99.90
39099;DHT22;24844;52.380;7.018;2022-07-29T10:21:03;20.00;99.90
39099;DHT22;24844;52.380;7.018;2022-07-29T10:23:29;19.90;99.90
39099;DHT22;24844;52.380;7.018;2022-07-29T10:25:55;20.00;99.90
39099;DHT22;24844;52.380;7.018;2022-07-29T10:28:21;20.10;99.90
39099;DHT22;24844;52.380;7.018;2022-07-29T10:30:46;20.10;99.90
39099;DHT22;24844;52.380;7.018;2022-07-29T10:33:22;20.10;99.90
39099;DHT22;24844;52.380;7.018;2022-07-29T10:43:58;20.00;99.90
39099;DHT22;24844;52.380;7.018;2022-07-29T10:46:24;20.10;99.90
39099;DHT22;24844;52.380;7.018;2022-07-29T10:59:38;19.60;99.90
39099;DHT22;24844;52.380;7.018;2022-07-29T11:02:23;19.60;99.90
39099;DHT22;24844;52.380;7.018;2022-07-29T11:07:17;19.60;99.90
39099;DHT22;24844;52.380;7.018;2022-07-29T11:09:43;19.60;99.90
39099;DHT22;24844;52.380;7.018;2022-07-29T11:14:55;19.70;99.90
39099;DHT22;24844;52.380;7.018;2022-07-29T11:17:21;19.50;99.90
39099;DHT22;24844;52.380;7.018;2022-07-29T11:19:46;19.30;99.90
39099;DHT22;24844;52.380;7.018;2022-07-29T11:22:14;19.30;99.90
39099;DHT22;24844;52.380;7.018;2022-07-29T11:27:40;19.30;99.90
39099;DHT22;24844;52.380;7.018;2022-07-29T11:30:06;19.10;99.90
39099;DHT22;24844;52.380;7.018;2022-07-29T11:32:39;18.90;99.90
39099;DHT22;24844;52.380;7.018;2022-07-29T11:35:15;18.50;99.90
39099;DHT22;24844;52.380;7.018;2022-07-29T11:37:42;18.50;99.90
39099;DHT22;24844;52.380;7.018;2022-07-29T11:40:08;18.30;99.90
39099;DHT22;24844;52.380;7.018;2022-07-29T11:47:26;18.40;99.90
39099;DHT22;24844;52.380;7.018;2022-07-29T11:49:52;18.50;99.90
39099;DHT22;24844;52.380;7.018;2022-07-29T11:52:18;18.30;99.90
39099;DHT22;24844;52.380;7.018;2022-07-29T11:54:44;18.30;99.90
39099;DHT22;24844;52.380;7.018;2022-07-29T11:57:12;17.90;99.90
39099;DHT22;24844;52.380;7.018;2022-07-29T11:59:41;17.80;99.90
39099;DHT22;24844;52.380;7.018;2022-07-29T12:02:07;18.00;99.90
39099;DHT22;24844;52.380;7.018;2022-07-29T12:04:33;18.10;99.90
39099;DHT22;24844;52.380;7.018;2022-07-29T12:06:59;18.10;99.90
39099;DHT22;24844;52.380;7.018;2022-07-29T12:09:24;18.20;99.90
39099;DHT22;24844;52.380;7.018;2022-07-29T12:11:55;18.30;99.90
39099;DHT22;24844;52.380;7.018;2022-07-29T12:14:27;18.20;99.90
39099;DHT22;24844;52.380;7.018;2022-07-29T12:16:53;18.10;99.90
39099;DHT22;24844;52.380;7.018;2022-07-29T12:19:19;17.80;99.90
39099;DHT22;24844;52.380;7.018;2022-07-29T12:21:45;18.10;99.90
39099;DHT22;24844;52.380;7.018;2022-07-29T12:24:11;18.10;99.90
39099;DHT22;24844;52.380;7.018;2022-07-29T12:26:41;18.00;99.90
39099;DHT22;24844;52.380;7.018;2022-07-29T12:29:16;18.00;99.90
39099;DHT22;24844;52.380;7.018;2022-07-29T12:31:43;18.10;99.90
39099;DHT22;24844;52.380;7.018;2022-07-29T12:34:10;17.90;99.90
39099;DHT22;24844;52.380;7.018;2022-07-29T12:36:35;18.20;99.90
39099;DHT22;24844;52.380;7.018;2022-07-29T12:39:01;18.30;99.90
39099;DHT22;24844;52.380;7.018;2022-07-29T12:41:28;18.20;99.90
39099;DHT22;24844;52.380;7.018;2022-07-29T12:43:53;18.40;99.90
39099;DHT22;24844;52.380;7.018;2022-07-29T12:46:19;18.50;99.90
39099;DHT22;24844;52.380;7.018;2022-07-29T12:48:45;18.30;99.90
39099;DHT22;24844;52.380;7.018;2022-07-29T12:51:14;18.30;99.90
39099;DHT22;24844;52.380;7.018;2022-07-29T12:54:00;18.50;99.90
39099;DHT22;24844;52.380;7.018;2022-07-29T12:56:26;18.60;99.90
39099;DHT22;24844;52.380;7.018;2022-07-29T12:58:52;18.40;99.90
39099;DHT22;24844;52.380;7.018;2022-07-29T13:01:18;18.40;99.90
39099;DHT22;24844;52.380;7.018;2022-07-29T13:03:45;18.30;99.90
39099;DHT22;24844;52.380;7.018;2022-07-29T13:09:35;18.60;99.90
39099;DHT22;24844;52.380;7.018;2022-07-29T13:11:50;18.60;99.90
39099;DHT22;24844;52.380;7.018;2022-07-29T13:14:32;18.30;99.90
39099;DHT22;24844;52.380;7.018;2022-07-29T13:22:00;18.10;99.90
39099;DHT22;24844;52.380;7.018;2022-07-29T13:24:26;18.40;99.90
39099;DHT22;24844;52.380;7.018;2022-07-29T13:26:51;18.40;99.90
39099;DHT22;24844;52.380;7.018;2022-07-29T13:29:17;18.60;99.90
39099;DHT22;24844;52.380;7.018;2022-07-29T13:31:42;18.50;99.90
39099;DHT22;24844;52.380;7.018;2022-07-29T13:34:08;18.50;99.90
39099;DHT22;24844;52.380;7.018;2022-07-29T13:36:33;18.70;99.90
39099;DHT22;24844;52.380;7.018;2022-07-29T13:38:59;18.90;99.90
39099;DHT22;24844;52.380;7.018;2022-07-29T13:41:26;18.80;99.90
39099;DHT22;24844;52.380;7.018;2022-07-29T13:43:51;19.10;99.90
39099;DHT22;24844;52.380;7.018;2022-07-29T13:46:17;19.10;99.90
39099;DHT22;24844;52.380;7.018;2022-07-29T13:48:42;19.10;99.90
39099;DHT22;24844;52.380;7.018;2022-07-29T13:51:08;19.20;99.90
39099;DHT22;24844;52.380;7.018;2022-07-29T13:53:33;19.30;99.90
39099;DHT22;24844;52.380;7.018;2022-07-29T13:55:58;19.40;99.90
39099;DHT22;24844;52.380;7.018;2022-07-29T13:58:24;19.40;99.90
39099;DHT22;24844;52.380;7.018;2022-07-29T14:00:49;19.20;99.90
39099;DHT22;24844;52.380;7.018;2022-07-29T14:03:15;19.60;99.90
39099;DHT22;24844;52.380;7.018;2022-07-29T14:05:40;19.80;99.90
39099;DHT22;24844;52.380;7.018;2022-07-29T14:08:06;19.80;99.90
39099;DHT22;24844;52.380;7.018;2022-07-29T14:10:31;19.80;99.90
39099;DHT22;24844;52.380;7.018;2022-07-29T14:12:57;19.80;99.90
39099;DHT22;24844;52.380;7.018;2022-07-29T14:15:22;19.90;99.90
39099;DHT22;24844;52.380;7.018;2022-07-29T14:17:48;20.20;99.90
39099;DHT22;24844;52.380;7.018;2022-07-29T14:20:14;20.30;99.90
39099;DHT22;24844;52.380;7.018;2022-07-29T14:22:40;20.50;99.90
39099;DHT22;24844;52.380;7.018;2022-07-29T14:25:06;20.60;99.90
39099;DHT22;24844;52.380;7.018;2022-07-29T14:27:32;20.80;99.90
39099;DHT22;24844;52.380;7.018;2022-07-29T14:29:57;20.90;99.90
39099;DHT22;24844;52.380;7.018;2022-07-29T14:32:23;20.40;99.90
39099;DHT22;24844;52.380;7.018;2022-07-29T14:34:48;20.60;99.90
39099;DHT22;24844;52.380;7.018;2022-07-29T14:37:14;20.80;99.90
39099;DHT22;24844;52.380;7.018;2022-07-29T14:39:39;20.50;99.90
39099;DHT22;24844;52.380;7.018;2022-07-29T14:42:05;20.40;99.90
39099;DHT22;24844;52.380;7.018;2022-07-29T14:44:30;20.20;99.90
39099;DHT22;24844;52.380;7.018;2022-07-29T14:46:59;20.00;99.90
39099;DHT22;24844;52.380;7.018;2022-07-29T14:49:25;20.10;99.90
39099;DHT22;24844;52.380;7.018;2022-07-29T14:51:51;20.20;99.90
39099;DHT22;24844;52.380;7.018;2022-07-29T14:54:17;20.40;99.90
39099;DHT22;24844;52.380;7.018;2022-07-29T14:56:42;20.30;99.90
39099;DHT22;24844;52.380;7.018;2022-07-29T14:59:08;20.20;99.90
39099;DHT22;24844;52.380;7.018;2022-07-29T15:01:33;20.10;99.90
39099;DHT22;24844;52.380;7.018;2022-07-29T15:03:59;19.90;99.90
39099;DHT22;24844;52.380;7.018;2022-07-29T15:06:24;19.60;99.90
39099;DHT22;24844;52.380;7.018;2022-07-29T15:08:49;19.70;99.90
39099;DHT22;24844;52.380;7.018;2022-07-29T15:11:15;19.70;99.90
39099;DHT22;24844;52.380;7.018;2022-07-29T15:13:40;20.00;99.90
39099;DHT22;24844;52.380;7.018;2022-07-29T15:16:07;19.80;99.90
39099;DHT22;24844;52.380;7.018;2022-07-29T15:18:32;19.70;99.90
39099;DHT22;24844;52.380;7.018;2022-07-29T15:20:58;19.80;99.90
39099;DHT22;24844;52.380;7.018;2022-07-29T15:23:25;20.00;99.90
39099;DHT22;24844;52.380;7.018;2022-07-29T15:25:51;20.10;99.90
39099;DHT22;24844;52.380;7.018;2022-07-29T15:28:16;20.30;99.90
39099;DHT22;24844;52.380;7.018;2022-07-29T15:30:42;20.20;99.90
39099;DHT22;24844;52.380;7.018;2022-07-29T15:33:08;20.30;99.90
39099;DHT22;24844;52.380;7.018;2022-07-29T15:35:34;20.60;99.90
39099;DHT22;24844;52.380;7.018;2022-07-29T15:38:00;20.50;99.90
39099;DHT22;24844;52.380;7.018;2022-07-29T15:40:26;20.70;99.90
39099;DHT22;24844;52.380;7.018;2022-07-29T15:42:51;20.80;99.90
39099;DHT22;24844;52.380;7.018;2022-07-29T15:45:17;20.90;99.90
39099;DHT22;24844;52.380;7.018;2022-07-29T15:47:42;20.80;99.90
39099;DHT22;24844;52.380;7.018;2022-07-29T15:50:08;20.80;99.90
39099;DHT22;24844;52.380;7.018;2022-07-29T15:52:38;21.00;99.90
39099;DHT22;24844;52.380;7.018;2022-07-29T15:55:04;21.20;99.90
39099;DHT22;24844;52.380;7.018;2022-07-29T15:57:30;21.20;99.90
39099;DHT22;24844;52.380;7.018;2022-07-29T15:59:55;21.70;99.90
39099;DHT22;24844;52.380;7.018;2022-07-29T16:02:21;22.00;99.90
39099;DHT22;24844;52.380;7.018;2022-07-29T16:04:47;22.40;99.90
39099;DHT22;24844;52.380;7.018;2022-07-29T16:07:12;22.60;99.90
39099;DHT22;24844;52.380;7.018;2022-07-29T16:09:38;22.80;99.90
39099;DHT22;24844;52.380;7.018;2022-07-29T16:12:03;22.90;99.90
39099;DHT22;24844;52.380;7.018;2022-07-29T16:14:29;22.90;99.90
39099;DHT22;24844;52.380;7.018;2022-07-29T16:16:54;22.90;99.90
39099;DHT22;24844;52.380;7.018;2022-07-29T16:19:20;23.20;99.90
39099;DHT22;24844;52.380;7.018;2022-07-29T16:21:45;23.20;99.90
39099;DHT22;24844;52.380;7.018;2022-07-29T16:24:11;23.50;98.00